Time;durP1;ratioP1;P1;durP2;ratioP2;P2;SDS_P1;SDS_P2;PMS_P1;PMS_P2;Temp;Humidity;BMP_temperature;BMP_pressure;BME280_temperature;BME280_humidity;BME280_pressure;Samples;Min_cycle;Max_cycle;Signal;HPM_P1;HPM_P2
2023/01/19 00:02:22;;;;;;;;;14.50;14.50;;;;;2.68;78.93;99765.84;5059817;28;45281;-80
2023/01/19 00:04:47;;;;;;;;;17.50;17.50;;;;;2.73;79.89;99782.19;5060269;28;45236;-76
2023/01/19 00:07:14;;;;;;;;;18.50;16.50;;;;;2.73;80.12;99774.38;5058055;28;54260;-77
2023/01/19 00:09:39;;;;;;;;;16.00;16.00;;;;;2.76;79.62;99781.28;5058628;28;45310;-72
2023/01/19 00:12:05;;;;;;;;;21.25;21.25;;;;;2.79;79.90;99789.00;5058226;28;45487;-77
2023/01/19 00:14:30;;;;;;;;;14.75;14.50;;;;;2.78;79.70;99780.34;5058385;28;45613;-73
2023/01/19 00:16:56;;;;;;;;;15.25;15.25;;;;;2.86;79.62;99790.56;5056844;28;46281;-75
2023/01/19 00:19:21;;;;;;;;;19.25;18.75;;;;;2.86;80.12;99793.19;5057174;28;45397;-72
2023/01/19 00:21:46;;;;;;;;;17.50;17.50;;;;;2.87;79.66;99787.09;5056566;28;45183;-74
2023/01/19 00:24:12;;;;;;;;;15.00;15.00;;;;;2.89;80.20;99792.25;5056423;28;45403;-73
2023/01/19 00:26:39;;;;;;;;;16.50;16.50;;;;;2.90;79.86;99789.63;5057355;28;46807;-74
2023/01/19 00:29:09;;;;;;;;;20.00;20.00;;;;;2.95;79.65;99799.06;5059027;28;45490;-77
2023/01/19 00:31:34;;;;;;;;;20.00;20.00;;;;;2.93;79.83;99791.28;5058877;28;45227;-79
2023/01/19 00:34:00;;;;;;;;;22.50;21.00;;;;;3.00;80.26;99800.66;5059447;28;45251;-79
2023/01/19 00:36:25;;;;;;;;;21.75;21.75;;;;;3.00;79.81;99803.25;5058679;28;45374;-74
2023/01/19 00:38:50;;;;;;;;;22.00;22.00;;;;;3.03;79.66;99802.34;5059198;28;45240;-76
2023/01/19 00:41:16;;;;;;;;;21.25;21.25;;;;;3.06;79.38;99797.09;5058326;28;45812;-77
2023/01/19 00:43:42;;;;;;;;;21.00;21.00;;;;;3.02;79.96;99788.50;5058651;28;45541;-79
2023/01/19 00:46:07;;;;;;;;;19.75;17.75;;;;;3.09;79.20;99793.53;5058517;28;45371;-77
2023/01/19 00:48:32;;;;;;;;;16.75;16.75;;;;;3.04;79.52;99786.72;5059009;28;45361;-77
2023/01/19 00:50:58;;;;;;;;;19.75;16.25;;;;;3.09;79.36;99806.53;5062484;28;45356;-78
2023/01/19 00:53:24;;;;;;;;;13.00;13.00;;;;;3.07;79.13;99806.59;5061341;28;45322;-81
2023/01/19 00:55:50;;;;;;;;;18.50;18.50;;;;;3.06;79.57;99810.06;5062968;28;45466;-78
2023/01/19 00:58:15;;;;;;;;;15.00;15.00;;;;;3.05;79.23;99818.75;5061991;28;45413;-80
2023/01/19 01:00:40;;;;;;;;;15.75;15.75;;;;;3.00;78.89;99812.81;5061911;28;45908;-78
2023/01/19 01:03:06;;;;;;;;;20.25;19.50;;;;;2.93;79.84;99809.47;5061490;28;45350;-80
2023/01/19 01:05:31;;;;;;;;;20.50;19.00;;;;;2.97;79.88;99815.47;5061395;28;46301;-78
2023/01/19 01:07:57;;;;;;;;;22.00;22.00;;;;;2.95;80.24;99810.28;5061192;28;45346;-78
2023/01/19 01:10:25;;;;;;;;;20.50;20.50;;;;;2.98;79.49;99819.78;5061055;28;45443;-79
2023/01/19 01:12:51;;;;;;;;;22.75;22.75;;;;;2.90;78.81;99822.53;5060807;28;45265;-80
2023/01/19 01:15:17;;;;;;;;;17.50;17.50;;;;;2.90;79.44;99838.97;5061065;28;45325;-78
2023/01/19 01:17:51;;;;;;;;;19.25;19.25;;;;;2.85;79.46;99839.94;5076787;27;45373;-75
2023/01/19 01:20:22;;;;;;;;;20.00;20.00;;;;;2.77;78.79;99833.16;5061666;28;45493;-76
2023/01/19 01:22:50;;;;;;;;;22.75;22.75;;;;;2.73;78.86;99844.50;5076606;27;45322;-81
2023/01/19 01:25:18;;;;;;;;;19.00;19.00;;;;;2.70;80.21;99844.56;5061614;28;46525;-77
2023/01/19 01:27:44;;;;;;;;;19.00;19.00;;;;;2.68;79.40;99848.94;5060630;28;45409;-76
2023/01/19 01:30:12;;;;;;;;;22.00;21.00;;;;;2.67;80.00;99843.78;5060340;28;45311;-78
2023/01/19 01:32:37;;;;;;;;;18.75;18.75;;;;;2.67;80.20;99851.56;5060581;28;45745;-77
2023/01/19 01:35:03;;;;;;;;;18.75;18.00;;;;;2.68;79.68;99859.31;5059705;28;45368;-72
2023/01/19 01:37:29;;;;;;;;;19.50;19.50;;;;;2.68;79.87;99859.31;5074915;28;45421;-73
2023/01/19 01:39:54;;;;;;;;;23.00;22.00;;;;;2.70;79.24;99859.31;5075877;28;45444;-73
2023/01/19 01:42:25;;;;;;;;;21.75;21.50;;;;;2.69;80.31;99866.22;5060928;28;45274;-77
2023/01/19 01:44:55;;;;;;;;;18.00;18.00;;;;;2.72;79.71;99871.34;5061369;28;46249;-75
2023/01/19 01:47:28;;;;;;;;;21.50;20.00;;;;;2.71;79.32;99867.06;5074934;28;45745;-75
2023/01/19 01:50:21;;;;;;;;;15.00;15.00;;;;;2.71;79.55;99872.25;5058900;28;45363;-74
2023/01/19 01:52:51;;;;;;;;;19.00;19.00;;;;;2.69;79.92;99878.38;5056914;28;45277;-77
2023/01/19 01:55:19;;;;;;;;;15.75;15.75;;;;;2.69;79.23;99881.81;5059477;28;45503;-76
2023/01/19 01:57:51;;;;;;;;;14.25;14.25;;;;;2.71;80.17;99885.22;5061074;28;45369;-78
2023/01/19 02:00:17;;;;;;;;;19.00;17.00;;;;;2.74;79.58;99894.72;5059436;28;45276;-75
2023/01/19 02:02:49;;;;;;;;;18.50;18.50;;;;;2.73;79.89;99888.66;5057701;28;45410;-79
2023/01/19 02:05:28;;;;;;;;;16.50;16.50;;;;;2.77;79.16;99886.88;5058747;28;46321;-77
2023/01/19 02:13:43;;;;;;;;;13.25;13.00;;;;;2.71;79.07;99889.59;5059413;28;45312;-78
2023/01/19 02:16:11;;;;;;;;;14.50;14.50;;;;;2.70;78.79;99886.13;5058774;28;46206;-78
2023/01/19 02:18:37;;;;;;;;;18.75;18.75;;;;;2.70;78.75;99891.31;5059299;28;45382;-76
2023/01/19 02:21:15;;;;;;;;;16.25;16.25;;;;;2.67;79.12;99885.34;5058756;28;45174;-78
2023/01/19 02:23:42;;;;;;;;;17.75;16.75;;;;;2.68;79.57;99897.44;5059573;28;45369;-77
2023/01/19 02:26:11;;;;;;;;;16.50;16.50;;;;;2.63;78.81;99895.75;5058498;28;45966;-76
2023/01/19 02:28:44;;;;;;;;;20.00;17.75;;;;;2.60;79.30;99888.00;5058824;28;45271;-79
2023/01/19 02:31:10;;;;;;;;;18.50;18.50;;;;;2.54;79.39;99890.72;5059107;28;45325;-78
2023/01/19 02:33:36;;;;;;;;;18.75;18.75;;;;;2.58;80.25;99891.53;5059624;28;45317;-78
2023/01/19 02:36:03;;;;;;;;;19.25;19.25;;;;;2.60;79.24;99900.16;5061924;28;45247;-75
2023/01/19 02:38:31;;;;;;;;;20.50;20.50;;;;;2.57;79.71;99897.63;5059363;28;45276;-77
2023/01/19 02:40:59;;;;;;;;;19.00;19.00;;;;;2.56;79.57;99901.09;5057654;28;45391;-78
2023/01/19 02:43:27;;;;;;;;;17.00;15.00;;;;;2.55;79.96;99900.22;5059329;28;45302;-78
2023/01/19 02:45:53;;;;;;;;;19.25;19.25;;;;;2.55;79.18;99895.03;5058186;28;45291;-78
2023/01/19 02:48:19;;;;;;;;;18.50;17.75;;;;;2.52;78.85;99889.91;5058029;28;45223;-77
2023/01/19 02:50:50;;;;;;;;;16.50;16.25;;;;;2.46;79.12;99885.69;5058621;28;45286;-76
2023/01/19 02:53:35;;;;;;;;;22.00;22.00;;;;;2.44;80.30;99892.66;5053724;28;45437;-79
2023/01/19 02:56:28;;;;;;;;;17.75;17.75;;;;;2.44;80.63;99884.88;5037161;28;45593;-77
2023/01/19 02:59:13;;;;;;;;;21.50;21.25;;;;;2.48;80.36;99889.13;5038204;28;45339;-70
2023/01/19 03:01:58;;;;;;;;;21.25;21.25;;;;;2.46;80.23;99885.69;5039102;28;45316;-74
2023/01/19 03:04:47;;;;;;;;;16.50;16.50;;;;;2.46;80.04;99888.28;5041653;28;45396;-73
2023/01/19 03:07:19;;;;;;;;;26.00;23.50;;;;;2.46;79.54;99879.63;5039549;28;46571;-77
2023/01/19 03:09:53;;;;;;;;;22.25;22.25;;;;;2.46;80.08;99884.81;5053057;28;45471;-78
2023/01/19 03:13:00;;;;;;;;;26.75;25.75;;;;;2.48;79.99;99886.53;5038473;28;45450;-75
2023/01/19 03:15:40;;;;;;;;;23.00;23.00;;;;;2.54;80.06;99905.47;5038978;28;45320;-81
2023/01/19 03:18:08;;;;;;;;;25.25;23.50;;;;;2.52;80.26;99891.66;5053152;28;46247;-76
2023/01/19 03:20:35;;;;;;;;;17.00;17.00;;;;;2.50;80.17;99885.63;5037694;28;45412;-75
2023/01/19 03:23:05;;;;;;;;;28.25;23.75;;;;;2.54;79.68;99885.53;5036506;28;45338;-72
2023/01/19 03:25:35;;;;;;;;;23.75;23.75;;;;;2.56;79.98;99886.38;5037792;28;45405;-77
2023/01/19 03:28:03;;;;;;;;;23.25;20.50;;;;;2.56;79.61;99883.75;5036634;28;46057;-78
2023/01/19 03:30:34;;;;;;;;;19.50;19.50;;;;;2.45;79.77;99872.72;5036500;28;45295;-74
2023/01/19 03:33:20;;;;;;;;;17.25;17.25;;;;;2.52;80.01;99889.91;5035954;28;45421;-75
2023/01/19 03:35:51;;;;;;;;;19.75;19.00;;;;;2.42;80.00;99870.19;5037281;28;45380;-77
2023/01/19 03:38:22;;;;;;;;;21.50;21.50;;;;;2.53;80.51;99882.97;5036669;28;45492;-78
2023/01/19 03:40:50;;;;;;;;;22.50;22.00;;;;;2.56;79.59;99888.97;5038632;28;44813;-73
2023/01/19 03:43:17;;;;;;;;;23.50;23.50;;;;;2.57;80.64;99888.06;5037164;28;45427;-74
2023/01/19 03:45:43;;;;;;;;;24.25;23.75;;;;;2.59;80.46;99888.06;5037901;28;45454;-77
2023/01/19 03:48:09;;;;;;;;;22.00;22.00;;;;;2.60;80.55;99887.19;5037572;28;46042;-77
2023/01/19 03:50:34;;;;;;;;;22.25;20.50;;;;;2.68;80.08;99900.03;5037558;28;45321;-79
2023/01/19 03:53:10;;;;;;;;;22.50;22.50;;;;;2.68;79.76;99894.84;5035989;28;45485;-77
2023/01/19 03:55:37;;;;;;;;;26.25;26.25;;;;;2.66;80.19;99892.25;5037848;28;45436;-73
2023/01/19 03:58:03;;;;;;;;;28.00;27.50;;;;;2.68;80.31;99890.47;5037440;28;46367;-78
2023/01/19 04:00:28;;;;;;;;;26.00;25.00;;;;;2.69;80.36;99897.38;5037219;28;45267;-78
2023/01/19 04:02:54;;;;;;;;;23.50;22.50;;;;;2.63;79.04;99894.91;5036148;28;45273;-78
2023/01/19 04:05:20;;;;;;;;;19.25;16.00;;;;;2.67;80.19;99895.72;5053000;28;45303;-75
2023/01/19 04:07:48;;;;;;;;;18.50;18.50;;;;;2.68;80.24;99902.63;5037121;28;45936;-79
2023/01/19 04:10:14;;;;;;;;;22.50;22.00;;;;;2.67;79.24;99891.38;5038999;28;45422;-77
2023/01/19 04:12:40;;;;;;;;;26.25;24.25;;;;;2.64;80.14;99891.44;5039714;28;45332;-79
2023/01/19 04:15:06;;;;;;;;;25.25;25.25;;;;;2.65;79.24;99903.53;5053889;28;45346;-78
2023/01/19 04:17:31;;;;;;;;;21.75;20.25;;;;;2.68;79.59;99908.66;5037975;28;46203;-74
2023/01/19 04:19:57;;;;;;;;;29.75;28.25;;;;;2.68;80.27;99897.44;5037532;28;45416;-74
2023/01/19 04:22:22;;;;;;;;;29.50;25.25;;;;;2.69;79.37;99905.19;5052347;28;45419;-70
2023/01/19 04:24:47;;;;;;;;;29.25;29.25;;;;;2.71;80.57;99898.22;5038275;28;45625;-70
2023/01/19 04:27:15;;;;;;;;;27.50;26.25;;;;;2.73;79.87;99898.19;5040306;28;45666;-70
2023/01/19 04:29:40;;;;;;;;;25.25;25.25;;;;;2.77;79.91;99900.69;5042777;28;45356;-78
2023/01/19 04:32:06;;;;;;;;;25.00;25.00;;;;;2.78;79.94;99901.56;5042593;28;45365;-76
2023/01/19 04:34:31;;;;;;;;;29.50;29.50;;;;;2.73;79.39;99893.84;5042828;28;45560;-75
2023/01/19 04:36:56;;;;;;;;;29.75;25.50;;;;;2.74;79.49;99897.31;5039347;28;46478;-75
2023/01/19 04:39:22;;;;;;;;;24.00;22.75;;;;;2.71;79.48;99894.78;5045356;28;54260;-76
2023/01/19 04:41:47;;;;;;;;;26.50;23.25;;;;;2.67;80.01;99888.78;5044909;28;49656;-78
2023/01/19 04:44:12;;;;;;;;;28.25;25.75;;;;;2.64;80.19;99894.03;5048252;28;45343;-76
2023/01/19 04:46:38;;;;;;;;;27.75;27.50;;;;;2.59;80.46;99891.50;5045692;28;45377;-73
2023/01/19 04:49:03;;;;;;;;;24.50;23.75;;;;;2.55;80.28;99895.03;5048644;28;44728;-79
2023/01/19 04:51:28;;;;;;;;;27.25;24.00;;;;;2.60;80.28;99894.97;5041300;28;45345;-78
2023/01/19 04:53:54;;;;;;;;;23.50;23.25;;;;;2.53;79.62;99885.56;5039659;28;45557;-76
2023/01/19 04:56:19;;;;;;;;;26.50;26.50;;;;;2.58;80.81;99899.34;5039027;28;45474;-77
2023/01/19 04:58:44;;;;;;;;;27.25;27.25;;;;;2.56;79.69;99898.50;5041635;28;45324;-79
2023/01/19 05:01:10;;;;;;;;;22.00;22.00;;;;;2.55;79.80;99895.03;5039510;28;45311;-77
2023/01/19 05:03:35;;;;;;;;;24.00;23.25;;;;;2.32;79.77;99862.56;5041110;28;45283;-79
2023/01/19 05:06:00;;;;;;;;;25.25;25.25;;;;;2.50;80.22;99901.22;5038933;28;46178;-79
2023/01/19 05:08:26;;;;;;;;;23.50;23.50;;;;;2.46;80.26;99898.66;5038572;28;45284;-80
2023/01/19 05:10:51;;;;;;;;;21.25;21.25;;;;;2.43;79.75;99890.06;5038897;28;45504;-76
2023/01/19 05:13:17;;;;;;;;;27.75;27.50;;;;;2.38;80.94;99897.94;5040744;28;45317;-76
2023/01/19 05:15:42;;;;;;;;;22.50;22.50;;;;;2.36;80.15;99899.72;5037840;28;45854;-75
2023/01/19 05:18:07;;;;;;;;;24.25;23.75;;;;;2.34;80.49;99896.28;5037995;28;52134;-74
2023/01/19 05:20:32;;;;;;;;;31.25;31.25;;;;;2.26;81.17;99883.44;5037795;28;45340;-72
2023/01/19 05:22:58;;;;;;;;;22.00;22.00;;;;;2.30;80.71;99898.06;5037542;28;49861;-73
2023/01/19 05:25:23;;;;;;;;;21.25;20.75;;;;;2.27;81.19;99905.06;5037508;28;46044;-74
2023/01/19 05:27:48;;;;;;;;;24.50;24.50;;;;;2.27;81.38;99903.31;5038073;28;45233;-73
2023/01/19 05:30:15;;;;;;;;;26.00;26.00;;;;;2.28;80.74;99899.00;5037742;28;45923;-71
2023/01/19 05:32:40;;;;;;;;;28.00;28.00;;;;;2.23;80.52;99893.03;5038421;28;45855;-72
2023/01/19 05:35:06;;;;;;;;;25.25;25.25;;;;;2.15;80.79;99890.53;5038067;28;45362;-80
2023/01/19 05:37:32;;;;;;;;;21.50;21.50;;;;;2.16;81.31;99889.66;5036970;28;45248;-75
2023/01/19 05:39:57;;;;;;;;;21.50;21.50;;;;;2.28;80.96;99901.59;5038977;28;45177;-76
2023/01/19 05:42:22;;;;;;;;;23.25;23.00;;;;;2.29;80.99;99903.31;5040540;28;45364;-75
2023/01/19 05:44:48;;;;;;;;;24.00;22.75;;;;;2.28;81.54;99902.44;5040328;28;46131;-78
2023/01/19 05:47:13;;;;;;;;;23.75;23.75;;;;;2.31;81.24;99901.53;5039347;28;45399;-73
2023/01/19 05:49:38;;;;;;;;;22.50;22.50;;;;;2.25;80.66;99891.25;5038660;28;45266;-76
2023/01/19 05:52:04;;;;;;;;;25.00;22.50;;;;;2.21;81.52;99900.81;5039428;28;45284;-77
2023/01/19 05:54:29;;;;;;;;;23.00;23.00;;;;;2.15;81.86;99898.31;5040949;28;46711;-80
2023/01/19 05:56:54;;;;;;;;;24.00;22.25;;;;;2.17;81.63;99909.53;5036991;28;54084;-80
2023/01/19 05:59:22;;;;;;;;;21.00;21.00;;;;;2.17;81.57;99909.53;5046394;28;51938;-79
2023/01/19 06:01:51;;;;;;;;;21.50;20.00;;;;;1.94;82.01;99877.03;5048351;28;45241;-79
2023/01/19 06:04:17;;;;;;;;;20.50;20.50;;;;;2.09;82.00;99904.47;5040310;28;45404;-80
2023/01/19 06:06:43;;;;;;;;;21.25;20.00;;;;;2.10;81.65;99913.13;5039207;28;45448;-78
2023/01/19 06:09:09;;;;;;;;;22.00;22.00;;;;;2.10;82.11;99910.53;5041236;28;45324;-79
2023/01/19 06:11:34;;;;;;;;;21.00;21.00;;;;;2.08;81.69;99905.34;5045390;28;45335;-80
2023/01/19 06:14:00;;;;;;;;;18.75;18.75;;;;;2.14;81.43;99907.88;5039760;28;46981;-79
2023/01/19 06:16:26;;;;;;;;;28.50;28.25;;;;;2.19;82.15;99910.38;5049393;28;44818;-76
2023/01/19 06:18:52;;;;;;;;;26.00;26.00;;;;;2.18;82.26;99908.66;5040616;28;45539;-78
2023/01/19 06:21:18;;;;;;;;;42.00;39.25;;;;;2.19;81.54;99918.16;5040793;28;45217;-76
2023/01/19 06:23:43;;;;;;;;;74.50;59.25;;;;;2.18;82.34;99913.84;5040496;28;47053;-74
2023/01/19 06:26:09;;;;;;;;;31.75;31.75;;;;;2.15;81.65;99909.56;5040164;28;45203;-80
2023/01/19 06:28:34;;;;;;;;;95.00;84.33;;;;;2.17;82.01;99910.41;5040304;28;45336;-78
2023/01/19 06:31:00;;;;;;;;;44.00;40.00;;;;;2.18;82.45;99914.72;5042821;28;44813;-76
2023/01/19 06:33:26;;;;;;;;;28.50;28.50;;;;;2.15;82.51;99916.50;5041309;28;46184;-82
2023/01/19 06:35:52;;;;;;;;;17.00;16.50;;;;;2.14;82.13;99925.16;5038380;28;45336;-78
2023/01/19 06:38:18;;;;;;;;;17.00;17.00;;;;;2.07;82.26;99915.75;5037703;28;45452;-78
2023/01/19 06:40:45;;;;;;;;;15.50;15.00;;;;;2.10;83.17;99932.13;5039379;28;45926;-76
2023/01/19 06:43:10;;;;;;;;;18.25;17.00;;;;;2.11;83.56;99928.66;5053895;28;47179;-79
2023/01/19 06:45:38;;;;;;;;;23.25;20.50;;;;;2.13;83.64;99936.41;5037886;28;45411;-78
2023/01/19 06:48:03;;;;;;;;;15.50;15.50;;;;;2.11;83.10;99931.25;5037281;28;45212;-77
2023/01/19 06:50:29;;;;;;;;;19.25;19.25;;;;;2.13;82.90;99939.88;5037554;28;45389;-75
2023/01/19 06:52:54;;;;;;;;;16.75;16.75;;;;;2.10;83.48;99939.06;5037701;28;45416;-76
2023/01/19 06:55:20;;;;;;;;;24.75;24.75;;;;;2.09;82.43;99933.00;5035871;28;45285;-74
2023/01/19 06:57:45;;;;;;;;;16.50;16.50;;;;;2.08;82.79;99926.09;5037073;28;45237;-76
2023/01/19 07:00:12;;;;;;;;;17.75;17.25;;;;;2.10;83.18;99933.88;5036888;28;45196;-77
2023/01/19 07:02:41;;;;;;;;;14.25;14.25;;;;;2.08;83.04;99936.47;5035781;28;46901;-76
2023/01/19 07:05:08;;;;;;;;;24.75;24.25;;;;;2.07;82.68;99933.91;5036309;28;45480;-72
2023/01/19 07:07:33;;;;;;;;;19.00;18.00;;;;;2.07;83.29;99934.75;5036888;28;45353;-70
2023/01/19 07:09:59;;;;;;;;;16.50;15.75;;;;;2.00;82.41;99934.03;5036024;28;45596;-76
2023/01/19 07:12:24;;;;;;;;;13.75;13.75;;;;;2.01;83.45;99934.84;5035509;28;46026;-72
2023/01/19 07:14:50;;;;;;;;;17.25;17.25;;;;;1.95;83.28;99932.34;5035280;28;45283;-73
2023/01/19 07:17:16;;;;;;;;;18.00;18.00;;;;;1.95;83.41;99921.97;5034580;28;45420;-75
2023/01/19 07:19:41;;;;;;;;;16.25;16.25;;;;;2.02;83.02;99932.25;5036156;28;45565;-78
2023/01/19 07:22:06;;;;;;;;;16.25;16.25;;;;;2.07;83.32;99944.31;5036102;28;45336;-79
2023/01/19 07:24:36;;;;;;;;;20.25;18.50;;;;;2.06;83.44;99932.22;5036605;28;45312;-80
2023/01/19 07:27:02;;;;;;;;;17.50;17.50;;;;;2.06;83.32;99930.47;5036258;28;44931;-77
2023/01/19 07:29:27;;;;;;;;;20.25;20.25;;;;;2.11;82.57;99935.59;5036888;28;45580;-80
2023/01/19 07:31:53;;;;;;;;;15.50;15.50;;;;;2.12;82.90;99940.78;5037724;28;45496;-78
2023/01/19 07:34:19;;;;;;;;;16.75;16.25;;;;;2.12;82.88;99942.50;5035331;28;46448;-78
2023/01/19 07:36:45;;;;;;;;;21.75;20.00;;;;;2.17;83.42;99951.94;5047276;28;45604;-73
2023/01/19 07:39:10;;;;;;;;;13.00;12.00;;;;;2.17;82.50;99941.56;5036003;28;46747;-72
2023/01/19 07:41:35;;;;;;;;;18.75;18.75;;;;;2.14;82.60;99933.81;5042839;28;45524;-72
2023/01/19 07:44:00;;;;;;;;;19.75;19.00;;;;;2.19;82.59;99942.38;5043426;28;45365;-72
2023/01/19 07:46:26;;;;;;;;;23.25;23.25;;;;;2.19;82.85;99946.69;5039894;28;54503;-70
2023/01/19 07:48:51;;;;;;;;;51.75;44.25;;;;;2.17;82.48;99938.09;5054240;28;45609;-71
2023/01/19 07:51:17;;;;;;;;;18.50;17.75;;;;;2.22;82.29;99944.06;5043608;28;55245;-69
2023/01/19 07:53:44;;;;;;;;;20.75;20.75;;;;;2.24;82.41;99952.66;5039316;28;45636;-71
2023/01/19 07:56:10;;;;;;;;;18.25;18.25;;;;;2.24;82.19;99951.84;5049296;28;45299;-72
2023/01/19 07:58:35;;;;;;;;;19.50;19.50;;;;;2.19;82.21;99944.97;5048283;28;45724;-73
2023/01/19 08:01:09;;;;;;;;;20.75;18.00;;;;;2.24;83.20;99952.66;5034176;28;46887;-73
2023/01/19 08:03:35;;;;;;;;;18.50;18.50;;;;;2.27;82.63;99956.97;5040355;28;45461;-74
2023/01/19 08:06:01;;;;;;;;;23.25;21.50;;;;;2.27;82.69;99951.78;5042350;28;45369;-72
2023/01/19 08:08:28;;;;;;;;;26.50;24.25;;;;;2.29;82.56;99963.84;5042123;28;45492;-72
2023/01/19 08:10:53;;;;;;;;;19.00;18.75;;;;;2.22;83.00;99949.25;5054312;28;46290;-72
2023/01/19 08:13:19;;;;;;;;;20.25;20.25;;;;;2.30;83.05;99955.16;5039736;28;54600;-69
2023/01/19 08:15:49;;;;;;;;;18.00;18.00;;;;;2.35;82.19;99965.50;5072207;27;45453;-72
2023/01/19 08:18:14;;;;;;;;;19.50;19.50;;;;;2.39;82.27;99958.50;5043541;28;45585;-70
2023/01/19 08:20:40;;;;;;;;;21.75;21.75;;;;;2.41;82.03;99965.38;5034698;28;45928;-72
2023/01/19 08:23:05;;;;;;;;;17.25;17.25;;;;;2.42;83.01;99966.22;5034046;28;45330;-74
2023/01/19 08:25:41;;;;;;;;;25.50;23.00;;;;;2.48;82.45;99971.31;5045944;28;45457;-74
2023/01/19 08:28:07;;;;;;;;;20.00;19.75;;;;;2.53;82.02;99972.09;5059201;28;45544;-74
2023/01/19 08:30:33;;;;;;;;;17.25;17.25;;;;;2.55;82.54;99967.72;5038134;28;46435;-73
2023/01/19 08:33:08;;;;;;;;;22.00;21.75;;;;;2.37;81.69;99937.78;5035914;28;45434;-75
2023/01/19 08:35:36;;;;;;;;;22.25;22.25;;;;;2.62;81.32;99976.28;5041366;28;45489;-79
2023/01/19 08:38:06;;;;;;;;;32.00;28.50;;;;;2.62;81.74;99964.16;5054247;28;45522;-75
2023/01/19 08:40:34;;;;;;;;;28.75;27.00;;;;;2.68;81.95;99973.59;5051857;28;46275;-74
2023/01/19 08:43:04;;;;;;;;;23.50;21.50;;;;;2.70;81.21;99977.00;5045850;28;45934;-79
2023/01/19 08:45:30;;;;;;;;;24.50;23.25;;;;;2.73;82.10;99979.56;5047595;28;45430;-77
2023/01/19 08:48:00;;;;;;;;;20.25;20.25;;;;;2.77;81.20;99982.97;5042082;28;45497;-75
2023/01/19 08:50:30;;;;;;;;;27.25;26.25;;;;;2.82;81.09;99975.97;5058332;28;46116;-76
2023/01/19 08:52:59;;;;;;;;;20.75;20.75;;;;;2.83;81.44;99976.78;5043209;28;45452;-78
2023/01/19 08:55:25;;;;;;;;;24.00;24.00;;;;;2.88;81.62;99983.63;5034212;28;45401;-73
2023/01/19 08:57:56;;;;;;;;;22.75;22.75;;;;;2.90;81.34;99970.59;5036097;28;45490;-75
2023/01/19 09:00:24;;;;;;;;;23.25;21.75;;;;;2.93;80.80;99973.13;5035390;28;47623;-75
2023/01/19 09:02:50;;;;;;;;;31.50;30.25;;;;;2.95;80.69;99973.97;5039719;28;45505;-73
2023/01/19 09:05:16;;;;;;;;;32.25;31.75;;;;;3.00;80.38;99985.13;5035100;28;45422;-78
2023/01/19 09:07:50;;;;;;;;;29.00;27.75;;;;;2.98;81.13;99971.31;5034770;28;45399;-75
2023/01/19 09:10:16;;;;;;;;;30.00;29.50;;;;;3.06;80.76;99987.63;5034396;28;47041;-73
2023/01/19 09:12:43;;;;;;;;;32.25;31.00;;;;;3.02;80.38;99972.97;5051922;28;45367;-74
2023/01/19 09:15:13;;;;;;;;;27.50;25.50;;;;;3.09;79.82;99975.44;5054084;28;45589;-72
2023/01/19 09:17:42;;;;;;;;;30.50;30.50;;;;;3.07;80.32;99978.94;5052341;28;45608;-73
2023/01/19 09:20:08;;;;;;;;;33.75;33.25;;;;;3.21;79.90;99996.88;5056274;28;46308;-77
2023/01/19 09:22:33;;;;;;;;;30.75;30.75;;;;;3.24;79.14;99982.97;5047902;28;45514;-78
2023/01/19 09:24:59;;;;;;;;;32.00;32.00;;;;;3.27;79.89;99988.13;5051559;28;45402;-78
2023/01/19 09:27:24;;;;;;;;;33.00;32.50;;;;;3.34;79.49;99994.03;5040063;28;45608;-78
2023/01/19 09:29:53;;;;;;;;;27.50;26.25;;;;;3.29;79.06;99986.34;5053548;28;48308;-78
2023/01/19 09:32:19;;;;;;;;;32.50;30.00;;;;;3.40;79.63;99993.06;5049080;28;45504;-78
2023/01/19 09:34:45;;;;;;;;;31.75;31.00;;;;;3.42;78.73;99981.75;5053933;28;45223;-79
2023/01/19 09:37:11;;;;;;;;;31.00;30.00;;;;;3.50;78.41;99992.00;5058801;28;45588;-79
2023/01/19 09:39:36;;;;;;;;;26.25;25.25;;;;;3.47;78.78;99973.84;5053485;28;46781;-76
2023/01/19 09:42:18;;;;;;;;;33.00;32.00;;;;;3.56;78.39;99978.88;5038352;28;45256;-76
2023/01/19 09:44:46;;;;;;;;;27.00;25.75;;;;;3.64;78.65;99992.56;5041492;28;45254;-74
2023/01/19 09:47:22;;;;;;;;;30.50;28.75;;;;;3.65;78.27;99988.19;5049171;28;45315;-75
2023/01/19 09:49:57;;;;;;;;;34.00;33.50;;;;;3.67;77.73;99990.78;5080359;27;48110;-75
2023/01/19 09:52:22;;;;;;;;;42.75;36.25;;;;;3.70;77.38;99996.75;5049452;28;45364;-65
2023/01/19 09:54:53;;;;;;;;;36.25;35.50;;;;;3.75;77.46;99994.94;5050452;28;45350;-67
2023/01/19 09:57:20;;;;;;;;;45.00;39.25;;;;;3.74;77.53;100000.16;5037626;28;45506;-65
2023/01/19 09:59:48;;;;;;;;;33.25;33.25;;;;;3.75;77.85;100001.88;5055040;28;46685;-76
2023/01/19 10:02:39;;;;;;;;;40.75;35.50;;;;;3.78;77.80;99996.63;5046229;28;45451;-70
2023/01/19 10:05:23;;;;;;;;;30.25;29.50;;;;;3.73;77.58;99978.53;5054265;28;45571;-69
2023/01/19 10:08:23;;;;;;;;;33.00;33.00;;;;;3.84;77.76;99991.28;5039483;28;45674;-67
2023/01/19 10:10:53;;;;;;;;;34.50;32.50;;;;;3.90;77.77;100000.72;5042605;28;46911;-69
2023/01/19 10:13:46;;;;;;;;;30.25;30.25;;;;;3.96;77.15;99992.75;5047268;28;45411;-67
2023/01/19 10:16:37;;;;;;;;;36.25;35.50;;;;;4.03;77.18;99996.06;5055996;28;45371;-78
2023/01/19 10:19:14;;;;;;;;;32.00;31.00;;;;;4.03;76.97;99989.13;5048993;28;45461;-67
2023/01/19 10:21:43;;;;;;;;;31.50;31.00;;;;;4.08;76.74;99996.81;5052108;28;45497;-69
2023/01/19 10:24:26;;;;;;;;;35.25;33.00;;;;;4.13;76.55;99988.91;5051428;28;45541;-66
2023/01/19 10:26:54;;;;;;;;;39.25;35.25;;;;;4.17;76.42;99996.59;5048379;28;46170;-69
2023/01/19 10:29:22;;;;;;;;;31.00;28.25;;;;;4.19;76.48;99992.22;5052530;28;45390;-70
2023/01/19 10:31:51;;;;;;;;;39.50;35.25;;;;;4.23;76.43;99999.06;5048540;28;45399;-69
2023/01/19 10:34:18;;;;;;;;;44.25;39.50;;;;;4.24;75.99;99992.13;5055792;28;45551;-67
2023/01/19 10:36:48;;;;;;;;;49.75;40.50;;;;;4.31;76.59;99988.47;5055764;28;45349;-69
2023/01/19 10:39:17;;;;;;;;;43.75;38.00;;;;;4.38;75.96;99984.84;5051799;28;45486;-68
2023/01/19 10:41:48;;;;;;;;;34.00;33.75;;;;;4.33;75.41;99976.28;5053768;28;46239;-69
2023/01/19 10:44:25;;;;;;;;;36.75;33.50;;;;;4.43;75.66;99982.13;5049959;28;45386;-69
2023/01/19 10:46:53;;;;;;;;;33.75;33.25;;;;;4.45;75.58;99974.28;5051438;28;45510;-68
2023/01/19 10:49:30;;;;;;;;;36.50;34.75;;;;;4.50;75.48;99975.00;5038482;28;45515;-67
2023/01/19 10:51:57;;;;;;;;;35.50;34.50;;;;;4.53;75.64;99962.78;5040249;28;46006;-67
2023/01/19 10:54:26;;;;;;;;;34.75;31.75;;;;;4.59;75.71;99961.75;5049820;28;45495;-70
2023/01/19 10:56:54;;;;;;;;;28.00;28.00;;;;;4.57;75.01;99960.94;5055315;28;45822;-67
2023/01/19 10:59:34;;;;;;;;;38.00;33.75;;;;;4.61;74.89;99962.56;5051607;28;45405;-68
2023/01/19 11:02:25;;;;;;;;;35.00;33.25;;;;;4.64;75.06;99954.69;5054961;28;46121;-69
2023/01/19 11:04:55;;;;;;;;;35.50;32.50;;;;;4.65;74.78;99958.16;5046234;28;45243;-71
2023/01/19 11:07:25;;;;;;;;;35.00;33.75;;;;;4.64;74.61;99953.84;5055061;28;45576;-67
2023/01/19 11:10:12;;;;;;;;;41.00;37.00;;;;;4.69;74.47;99957.19;5055428;28;45263;-68
2023/01/19 11:12:42;;;;;;;;;43.00;36.75;;;;;4.71;74.83;99958.00;5054954;28;45319;-67
2023/01/19 11:15:19;;;;;;;;;36.00;34.25;;;;;4.75;74.73;99961.34;5070658;28;45374;-66
2023/01/19 11:17:47;;;;;;;;;31.00;31.00;;;;;4.81;74.77;99961.22;5033485;28;45601;-72
2023/01/19 11:20:25;;;;;;;;;38.75;35.00;;;;;4.83;74.77;99949.84;5035781;28;45518;-69
2023/01/19 11:23:18;;;;;;;;;31.00;31.00;;;;;4.86;74.25;99959.34;5035489;28;45530;-68
2023/01/19 11:25:47;;;;;;;;;31.75;31.75;;;;;4.81;74.56;99945.59;5053226;28;45505;-69
2023/01/19 11:28:41;;;;;;;;;35.75;34.50;;;;;4.89;74.32;99953.19;5055238;28;45832;-68
2023/01/19 11:31:09;;;;;;;;;35.50;34.25;;;;;4.92;74.40;99953.09;5037499;28;45372;-70
2023/01/19 11:33:41;;;;;;;;;38.75;36.00;;;;;4.91;73.98;99949.66;5049829;28;47321;-70
2023/01/19 11:36:20;;;;;;;;;39.00;36.50;;;;;4.91;73.81;99952.25;5040165;28;45430;-73
2023/01/19 11:38:50;;;;;;;;;34.25;33.25;;;;;4.92;73.76;99953.97;5040450;28;45647;-69